createdAt,value
2018-05-11T00:01:22.166Z,97.40
2018-05-11T00:03:48.666Z,97.40
2018-05-11T00:06:15.163Z,97.40
2018-05-11T00:08:42.354Z,97.40
2018-05-11T00:11:08.798Z,97.70
2018-05-11T00:13:35.354Z,97.30
2018-05-11T00:16:01.803Z,97.20
2018-05-11T00:18:28.963Z,97.10
2018-05-11T00:20:56.156Z,96.90
2018-05-11T00:23:22.647Z,96.90
2018-05-11T00:25:49.095Z,96.80
2018-05-11T00:28:15.566Z,96.60
2018-05-11T00:30:42.002Z,96.60
2018-05-11T00:33:08.438Z,96.80
2018-05-11T00:35:34.902Z,97.20
2018-05-11T00:38:01.310Z,97.70
2018-05-11T00:40:27.742Z,97.90
2018-05-11T00:42:54.157Z,98.10
2018-05-11T00:45:20.576Z,98.30
2018-05-11T00:47:46.992Z,98.80
2018-05-11T00:50:13.411Z,98.90
2018-05-11T00:52:40.697Z,99.40
2018-05-11T00:55:20.090Z,99.30
2018-05-11T00:57:46.512Z,99.70
2018-05-11T01:00:12.953Z,99.90
2018-05-11T01:02:40.088Z,99.90
2018-05-11T01:05:06.526Z,99.90
2018-05-11T01:07:32.961Z,99.90
2018-05-11T01:10:00.604Z,99.90
2018-05-11T01:12:27.782Z,99.90
2018-05-11T01:14:54.965Z,99.90
2018-05-11T01:17:22.122Z,99.90
2018-05-11T01:19:49.306Z,99.90
2018-05-11T01:22:15.826Z,99.90
2018-05-11T01:24:42.329Z,99.90
2018-05-11T01:27:08.735Z,99.90
2018-05-11T01:29:35.162Z,99.90
2018-05-11T01:32:01.692Z,99.90
2018-05-11T01:34:28.900Z,99.90
2018-05-11T01:36:55.423Z,99.90
2018-05-11T01:39:22.590Z,99.90
2018-05-11T01:41:49.766Z,99.90
2018-05-11T01:44:16.944Z,99.90
2018-05-11T01:46:43.352Z,99.90
2018-05-11T01:49:09.854Z,99.90
2018-05-11T01:51:37.089Z,99.90
2018-05-11T01:54:03.584Z,99.90
2018-05-11T01:56:30.760Z,99.90
2018-05-11T01:58:58.031Z,99.90
2018-05-11T02:01:24.443Z,99.90
2018-05-11T02:03:50.847Z,99.90
2018-05-11T02:06:17.277Z,99.90
2018-05-11T02:08:44.491Z,99.90
2018-05-11T02:11:11.017Z,99.90
2018-05-11T02:13:38.210Z,99.90
2018-05-11T02:16:04.657Z,99.90
2018-05-11T02:18:31.935Z,99.90
2018-05-11T02:20:58.339Z,99.90
2018-05-11T02:23:24.917Z,99.90
2018-05-11T02:25:51.422Z,99.90
2018-05-11T02:28:17.858Z,99.90
2018-05-11T02:30:45.134Z,99.90
2018-05-11T02:33:12.306Z,99.90
2018-05-11T02:35:39.497Z,99.90
2018-05-11T02:38:05.943Z,99.90
2018-05-11T02:40:32.350Z,99.90
2018-05-11T02:42:58.774Z,99.90
2018-05-11T02:45:25.204Z,99.90
2018-05-11T02:47:51.761Z,99.90
2018-05-11T02:50:19.450Z,99.90
2018-05-11T02:52:45.887Z,99.90
2018-05-11T02:55:13.075Z,99.90
2018-05-11T02:57:39.503Z,99.90
2018-05-11T03:00:05.971Z,99.90
2018-05-11T03:02:33.111Z,99.90
2018-05-11T03:04:59.551Z,99.90
2018-05-11T03:07:26.074Z,99.90
2018-05-11T03:09:52.629Z,99.90
2018-05-11T03:12:19.907Z,99.70
2018-05-11T03:14:46.333Z,99.70
2018-05-11T03:17:13.470Z,99.90
2018-05-11T03:19:40.092Z,99.90
2018-05-11T03:22:07.244Z,99.90
2018-05-11T03:24:33.662Z,99.90
2018-05-11T03:27:00.048Z,99.90
2018-05-11T03:29:27.232Z,99.90
2018-05-11T03:31:55.002Z,99.90
2018-05-11T03:34:21.411Z,99.90
2018-05-11T03:36:47.796Z,99.90
2018-05-11T03:39:14.204Z,99.90
2018-05-11T03:41:40.578Z,99.90
2018-05-11T03:44:07.630Z,99.90
2018-05-11T03:46:34.673Z,99.90
2018-05-11T03:49:01.145Z,99.90
2018-05-11T03:51:28.295Z,99.90
2018-05-11T03:53:55.474Z,99.90
2018-05-11T03:56:22.046Z,99.90
2018-05-11T03:58:49.655Z,99.90
2018-05-11T04:01:28.371Z,99.90
2018-05-11T04:04:07.081Z,99.90
2018-05-11T04:06:45.699Z,99.90
2018-05-11T04:09:12.980Z,99.90
2018-05-11T04:11:39.487Z,99.90
2018-05-11T04:14:06.092Z,99.90
2018-05-11T04:16:32.496Z,99.90
2018-05-11T04:18:59.017Z,99.90
2018-05-11T04:21:27.092Z,99.90
2018-05-11T04:23:53.677Z,99.90
2018-05-11T04:26:20.210Z,99.90
2018-05-11T04:28:47.850Z,99.90
2018-05-11T04:31:14.800Z,99.90
2018-05-11T04:33:41.342Z,99.90
2018-05-11T04:36:08.206Z,99.90
2018-05-11T04:38:35.531Z,99.90
2018-05-11T04:41:01.969Z,99.90
2018-05-11T04:43:28.478Z,99.90
2018-05-11T04:45:55.151Z,99.90
2018-05-11T04:48:22.279Z,99.90
2018-05-11T04:50:49.216Z,99.90
2018-05-11T04:53:15.679Z,99.90
2018-05-11T04:55:42.188Z,99.90
2018-05-11T04:58:08.635Z,99.90
2018-05-11T05:00:35.220Z,99.90
2018-05-11T05:03:01.863Z,99.90
2018-05-11T05:05:28.443Z,99.90
2018-05-11T05:07:55.209Z,99.90
2018-05-11T05:10:22.004Z,99.90
2018-05-11T05:12:49.553Z,99.90
2018-05-11T05:15:16.087Z,99.90
2018-05-11T05:17:42.675Z,99.90
2018-05-11T05:20:09.136Z,99.90
2018-05-11T05:22:35.810Z,99.90
2018-05-11T05:25:02.299Z,99.90
2018-05-11T05:27:29.474Z,99.90
2018-05-11T05:29:58.165Z,99.90
2018-05-11T05:32:24.956Z,99.90
2018-05-11T05:34:51.546Z,99.90
2018-05-11T05:37:19.130Z,99.90
2018-05-11T05:39:45.920Z,99.90
2018-05-11T05:42:12.358Z,99.90
2018-05-11T05:44:39.709Z,99.90
2018-05-11T05:47:06.531Z,99.90
2018-05-11T05:49:34.903Z,99.90
2018-05-11T05:52:02.342Z,99.90
2018-05-11T05:54:30.023Z,99.90
2018-05-11T05:56:57.289Z,99.90
2018-05-11T05:59:24.941Z,99.90
2018-05-11T06:01:52.901Z,99.90
2018-05-11T06:04:20.484Z,99.90
2018-05-11T06:06:47.034Z,99.90
2018-05-11T06:09:14.103Z,99.90
2018-05-11T06:11:41.404Z,99.90
2018-05-11T06:14:08.688Z,99.90
2018-05-11T06:16:35.434Z,99.90
2018-05-11T06:19:02.317Z,99.90
2018-05-11T06:21:28.942Z,99.90
2018-05-11T06:23:55.725Z,99.90
2018-05-11T06:26:22.597Z,99.90
2018-05-11T06:28:49.465Z,99.90
2018-05-11T06:31:16.187Z,99.90
2018-05-11T06:33:43.916Z,99.90
2018-05-11T06:36:10.436Z,99.90
2018-05-11T06:38:38.171Z,99.90
2018-05-11T06:41:05.438Z,99.90
2018-05-11T06:43:34.723Z,99.90
2018-05-11T06:46:02.050Z,99.90
2018-05-11T06:48:28.591Z,99.90
2018-05-11T06:50:55.036Z,99.90
2018-05-11T06:53:21.824Z,99.90
2018-05-11T06:55:49.247Z,99.90
2018-05-11T06:58:15.812Z,99.90
2018-05-11T07:00:42.644Z,99.90
2018-05-11T07:03:09.357Z,99.90
2018-05-11T07:05:37.325Z,99.90
2018-05-11T07:08:03.869Z,99.90
2018-05-11T07:10:30.353Z,99.90
2018-05-11T07:12:57.112Z,99.90
2018-05-11T07:15:24.026Z,99.90
2018-05-11T07:17:52.477Z,99.70
2018-05-11T07:20:19.686Z,99.70
2018-05-11T07:22:46.506Z,99.70
2018-05-11T07:25:13.870Z,99.80
2018-05-11T07:27:42.364Z,99.80
2018-05-11T07:30:09.643Z,99.40
2018-05-11T07:32:36.138Z,99.40
2018-05-11T07:35:03.333Z,99.50
2018-05-11T07:37:30.783Z,99.70
2018-05-11T07:39:57.571Z,99.70
2018-05-11T07:42:24.197Z,99.90
2018-05-11T07:44:50.885Z,99.90
2018-05-11T07:47:17.981Z,99.90
2018-05-11T07:49:45.915Z,99.90
2018-05-11T07:52:12.577Z,99.90
2018-05-11T07:54:39.751Z,99.10
2018-05-11T07:57:06.656Z,99.10
2018-05-11T07:59:33.173Z,98.90
2018-05-11T08:01:59.659Z,98.20
2018-05-11T08:04:26.401Z,97.90
2018-05-11T08:06:52.843Z,97.20
2018-05-11T08:09:20.123Z,96.30
2018-05-11T08:11:47.315Z,95.90
2018-05-11T08:14:14.468Z,95.80
2018-05-11T08:16:40.939Z,95.30
2018-05-11T08:19:07.403Z,95.50
2018-05-11T08:21:33.831Z,95.50
2018-05-11T08:24:01.000Z,95.20
2018-05-11T08:26:28.283Z,95.50
2018-05-11T08:28:55.510Z,95.70
2018-05-11T08:31:21.961Z,95.60
2018-05-11T08:33:48.473Z,95.60
2018-05-11T08:36:15.737Z,95.70
2018-05-11T08:38:42.245Z,95.70
2018-05-11T08:41:08.665Z,95.80
2018-05-11T08:43:35.109Z,95.60
2018-05-11T08:46:02.969Z,94.80
2018-05-11T08:48:29.452Z,94.90
2018-05-11T08:50:56.655Z,94.30
2018-05-11T08:53:23.192Z,94.20
2018-05-11T08:55:49.828Z,93.80
2018-05-11T08:58:16.195Z,93.50
2018-05-11T09:00:43.330Z,93.70
2018-05-11T09:03:09.787Z,93.60
2018-05-11T09:05:36.215Z,93.50
2018-05-11T09:08:02.854Z,93.60
2018-05-11T09:10:29.302Z,93.70
2018-05-11T09:12:55.818Z,94.00
2018-05-11T09:15:22.255Z,94.20
2018-05-11T09:17:48.636Z,94.20
2018-05-11T09:20:15.088Z,94.40
2018-05-11T09:22:41.509Z,94.40
2018-05-11T09:25:08.486Z,94.40
2018-05-11T09:27:34.892Z,94.30
2018-05-11T09:30:01.856Z,94.00
2018-05-11T09:32:29.151Z,93.30
2018-05-11T09:34:56.432Z,92.80
2018-05-11T09:37:22.987Z,92.80
2018-05-11T09:39:49.559Z,92.90
2018-05-11T09:42:15.952Z,92.80
2018-05-11T09:44:42.434Z,92.50
2018-05-11T09:47:09.029Z,92.70
2018-05-11T09:49:35.561Z,92.70
2018-05-11T09:52:02.809Z,92.90
2018-05-11T09:54:29.260Z,92.80
2018-05-11T09:56:55.713Z,92.90
2018-05-11T09:59:22.111Z,92.40
2018-05-11T10:01:49.421Z,92.20
2018-05-11T10:04:15.792Z,92.10
2018-05-11T10:06:42.232Z,91.60
2018-05-11T10:09:08.693Z,90.70
2018-05-11T10:11:35.255Z,90.10
2018-05-11T10:14:01.687Z,89.80
2018-05-11T10:16:28.177Z,88.90
2018-05-11T10:18:54.582Z,88.30
2018-05-11T10:21:21.857Z,86.60
2018-05-11T10:23:49.096Z,86.30
2018-05-11T10:26:15.538Z,86.30
2018-05-11T10:28:42.012Z,85.30
2018-05-11T10:31:08.386Z,84.30
2018-05-11T10:33:35.669Z,82.20
2018-05-11T10:36:02.951Z,81.80
2018-05-11T10:38:29.410Z,81.80
2018-05-11T10:40:55.962Z,81.20
2018-05-11T10:43:23.170Z,80.60
2018-05-11T10:45:49.694Z,80.60
2018-05-11T10:48:16.968Z,79.70
2018-05-11T10:50:44.166Z,80.30
2018-05-11T10:53:10.700Z,80.30
2018-05-11T10:55:37.974Z,79.10
2018-05-11T10:58:05.204Z,78.90
2018-05-11T11:00:31.707Z,78.70
2018-05-11T11:02:59.005Z,78.20
2018-05-11T11:05:25.418Z,78.10
2018-05-11T11:07:52.570Z,77.60
2018-05-11T11:10:18.982Z,77.60
2018-05-11T11:12:45.418Z,76.60
2018-05-11T11:15:12.626Z,75.60
2018-05-11T11:17:39.174Z,74.90
2018-05-11T11:20:05.956Z,75.30
2018-05-11T11:22:32.363Z,75.60
2018-05-11T11:24:59.535Z,75.60
2018-05-11T11:27:26.720Z,74.50
2018-05-11T11:29:53.273Z,74.40
2018-05-11T11:32:20.486Z,72.20
2018-05-11T11:34:46.984Z,72.20
2018-05-11T11:37:13.343Z,73.10
2018-05-11T11:39:40.539Z,71.50
2018-05-11T11:42:06.972Z,71.50
2018-05-11T11:44:34.765Z,71.00
2018-05-11T11:47:01.992Z,71.20
2018-05-11T11:49:28.420Z,71.20
2018-05-11T11:51:54.966Z,72.10
2018-05-11T11:54:21.438Z,71.70
2018-05-11T11:56:47.982Z,71.50
2018-05-11T11:59:14.395Z,72.40
2018-05-11T12:01:41.723Z,72.00
2018-05-11T12:04:08.366Z,71.90
2018-05-11T12:06:35.743Z,71.00
2018-05-11T12:09:03.174Z,70.60
2018-05-11T12:11:29.529Z,70.50
2018-05-11T12:13:55.932Z,70.10
2018-05-11T12:16:23.109Z,68.30
2018-05-11T12:18:49.530Z,68.20
2018-05-11T12:21:15.983Z,68.40
2018-05-11T12:23:42.469Z,68.40
2018-05-11T12:26:08.817Z,66.90
2018-05-11T12:28:36.203Z,65.80
2018-05-11T12:31:03.477Z,65.30
2018-05-11T12:33:30.700Z,63.70
2018-05-11T12:35:57.209Z,63.70
2018-05-11T12:38:24.584Z,63.90
2018-05-11T12:40:51.764Z,64.20
2018-05-11T12:43:18.232Z,64.20
2018-05-11T12:45:44.772Z,64.10
2018-05-11T12:48:11.200Z,63.90
2018-05-11T12:50:37.608Z,64.00
2018-05-11T12:53:04.781Z,63.70
2018-05-11T12:55:31.310Z,64.50
2018-05-11T12:57:58.486Z,63.70
2018-05-11T13:00:24.950Z,63.70
2018-05-11T13:02:51.397Z,63.20
2018-05-11T13:05:18.583Z,64.60
2018-05-11T13:07:45.014Z,64.60
2018-05-11T13:10:12.341Z,65.40
2018-05-11T13:12:38.769Z,65.40
2018-05-11T13:15:05.379Z,65.40
2018-05-11T13:17:31.972Z,66.80
2018-05-11T13:19:59.167Z,66.40
2018-05-11T13:22:25.599Z,66.60
2018-05-11T13:24:52.802Z,67.00
2018-05-11T13:27:19.211Z,67.00
2018-05-11T13:29:46.385Z,67.00
2018-05-11T13:32:12.967Z,67.00
2018-05-11T13:34:39.729Z,67.30
2018-05-11T13:37:06.153Z,66.90
2018-05-11T13:39:32.663Z,66.30
2018-05-11T13:41:59.130Z,66.60
2018-05-11T13:44:25.587Z,66.90
2018-05-11T13:46:52.066Z,67.10
2018-05-11T13:49:18.568Z,66.30
2018-05-11T13:51:45.742Z,68.30
2018-05-11T13:54:13.028Z,68.30
2018-05-11T13:56:39.536Z,68.30
2018-05-11T13:59:05.980Z,68.10
2018-05-11T14:01:32.440Z,66.90
2018-05-11T14:03:58.844Z,66.00
2018-05-11T14:06:26.106Z,65.70
2018-05-11T14:08:53.307Z,64.50
2018-05-11T14:11:19.737Z,64.40
2018-05-11T14:13:46.894Z,63.80
2018-05-11T14:16:13.315Z,63.70
2018-05-11T14:18:39.760Z,62.10
2018-05-11T14:21:06.235Z,63.60
2018-05-11T14:23:32.682Z,63.70
2018-05-11T14:25:59.151Z,64.00
2018-05-11T14:28:25.757Z,64.10
2018-05-11T14:30:53.522Z,64.20
2018-05-11T14:33:20.029Z,64.20
2018-05-11T14:35:46.555Z,64.80
2018-05-11T14:38:13.833Z,65.50
2018-05-11T14:40:41.414Z,65.00
2018-05-11T14:43:07.863Z,65.00
2018-05-11T14:45:34.362Z,65.20
2018-05-11T14:48:00.885Z,65.30
2018-05-11T14:50:28.367Z,65.70
2018-05-11T14:52:55.636Z,66.70
2018-05-11T14:55:22.874Z,65.80
2018-05-11T14:57:49.370Z,65.80
2018-05-11T15:00:16.518Z,65.80
2018-05-11T15:02:42.954Z,65.80
2018-05-11T15:05:09.558Z,65.60
2018-05-11T15:07:36.712Z,65.20
2018-05-11T15:10:04.230Z,65.60
2018-05-11T15:12:30.689Z,65.60
2018-05-11T15:14:57.139Z,65.70
2018-05-11T15:17:23.539Z,65.40
2018-05-11T15:19:50.019Z,65.20
2018-05-11T15:22:17.197Z,66.10
2018-05-11T15:24:43.643Z,66.90
2018-05-11T15:27:10.079Z,66.50
2018-05-11T15:29:37.337Z,66.90
2018-05-11T15:32:04.778Z,67.00
2018-05-11T15:34:31.222Z,68.20
2018-05-11T15:36:58.379Z,70.70
2018-05-11T15:39:25.579Z,71.20
2018-05-11T15:41:52.021Z,70.30
2018-05-11T15:44:19.181Z,71.00
2018-05-11T15:46:46.380Z,70.90
2018-05-11T15:49:12.824Z,70.90
2018-05-11T15:51:39.993Z,71.20
2018-05-11T15:54:07.271Z,71.20
2018-05-11T15:56:34.415Z,71.60
2018-05-11T15:59:00.938Z,71.60
2018-05-11T16:01:27.361Z,71.50
2018-05-11T16:03:53.767Z,71.60
2018-05-11T16:06:20.271Z,71.90
2018-05-11T16:08:46.727Z,71.40
2018-05-11T16:11:13.882Z,72.30
2018-05-11T16:13:40.354Z,72.30
2018-05-11T16:16:07.553Z,72.80
2018-05-11T16:18:33.955Z,72.80
2018-05-11T16:21:00.375Z,73.80
2018-05-11T16:23:26.778Z,74.60
2018-05-11T16:25:53.232Z,75.70
2018-05-11T16:28:19.724Z,77.10
2018-05-11T16:30:46.104Z,78.20
2018-05-11T16:33:13.038Z,78.90
2018-05-11T16:35:39.508Z,79.70
2018-05-11T16:38:05.977Z,80.00
2018-05-11T16:40:32.724Z,81.00
2018-05-11T16:42:59.177Z,81.70
2018-05-11T16:45:25.720Z,82.70
2018-05-11T16:47:52.879Z,84.30
2018-05-11T16:50:19.377Z,84.10
2018-05-11T16:52:45.907Z,84.80
2018-05-11T16:55:13.184Z,84.60
2018-05-11T16:57:40.333Z,84.70
2018-05-11T17:00:07.579Z,84.80
2018-05-11T17:02:34.045Z,84.80
2018-05-11T17:05:02.005Z,86.80
2018-05-11T17:07:28.469Z,86.00
2018-05-11T17:09:54.966Z,87.00
2018-05-11T17:12:22.262Z,85.80
2018-05-11T17:14:49.415Z,85.70
2018-05-11T17:17:16.592Z,86.00
2018-05-11T17:19:43.727Z,86.40
2018-05-11T17:22:10.193Z,86.40
2018-05-11T17:24:36.798Z,86.40
2018-05-11T17:27:03.228Z,86.60
2018-05-11T17:29:29.708Z,86.60
2018-05-11T17:31:56.903Z,87.50
2018-05-11T17:34:23.333Z,87.50
2018-05-11T17:36:50.496Z,89.30
2018-05-11T17:39:17.823Z,89.60
2018-05-11T17:41:44.375Z,89.60
2018-05-11T17:44:12.739Z,90.10
2018-05-11T17:46:39.191Z,90.10
2018-05-11T17:49:06.390Z,90.50
2018-05-11T17:51:32.813Z,90.50
2018-05-11T17:54:00.208Z,91.00
2018-05-11T17:56:26.755Z,91.00
2018-05-11T17:58:53.324Z,91.30
2018-05-11T18:01:19.851Z,91.40
2018-05-11T18:03:46.313Z,91.60
2018-05-11T18:06:13.916Z,92.50
2018-05-11T18:08:42.315Z,92.40
2018-05-11T18:11:10.344Z,92.40
2018-05-11T18:13:37.176Z,92.70
2018-05-11T18:16:04.547Z,93.00
2018-05-11T18:18:31.555Z,93.30
2018-05-11T18:20:58.389Z,93.60
2018-05-11T18:23:25.862Z,93.80
2018-05-11T18:25:53.544Z,94.00
2018-05-11T18:28:20.028Z,94.20
2018-05-11T18:30:46.560Z,94.40
2018-05-11T18:33:13.837Z,94.90
2018-05-11T18:35:40.598Z,94.80
2018-05-11T18:38:07.156Z,95.10
2018-05-11T18:40:33.714Z,95.30
2018-05-11T18:43:00.686Z,95.60
2018-05-11T18:45:28.548Z,95.70
2018-05-11T18:47:56.359Z,96.30
2018-05-11T18:50:23.018Z,96.00
2018-05-11T18:52:49.493Z,96.20
2018-05-11T18:55:16.648Z,96.60
2018-05-11T18:57:44.028Z,96.80
2018-05-11T19:00:11.195Z,96.80
2018-05-11T19:02:38.405Z,97.10
2018-05-11T19:05:05.241Z,97.30
2018-05-11T19:07:31.741Z,97.50
2018-05-11T19:09:58.221Z,97.80
2018-05-11T19:12:26.076Z,98.10
2018-05-11T19:14:55.287Z,98.30
2018-05-11T19:17:22.158Z,98.30
2018-05-11T19:19:49.909Z,98.30
2018-05-11T19:22:16.674Z,98.50
2018-05-11T19:24:43.736Z,98.60
2018-05-11T19:27:10.416Z,98.80
2018-05-11T19:29:36.944Z,98.90
2018-05-11T19:32:04.538Z,99.10
2018-05-11T19:34:31.161Z,99.10
2018-05-11T19:36:58.064Z,99.20
2018-05-11T19:39:24.731Z,99.40
2018-05-11T19:41:51.391Z,99.50
2018-05-11T19:44:18.159Z,99.70
2018-05-11T19:46:44.644Z,99.90
2018-05-11T19:49:12.670Z,99.90
2018-05-11T19:51:39.879Z,99.90
2018-05-11T19:54:06.849Z,99.90
2018-05-11T19:56:33.910Z,99.90
2018-05-11T19:59:00.708Z,99.90
2018-05-11T20:01:27.338Z,99.90
2018-05-11T20:03:54.708Z,99.90
2018-05-11T20:07:30.113Z,99.90
2018-05-11T20:09:56.747Z,99.90
2018-05-11T20:12:24.747Z,99.90
2018-05-11T20:14:51.927Z,99.90
2018-05-11T20:17:19.124Z,99.90
2018-05-11T20:19:46.674Z,99.90
2018-05-11T20:22:13.949Z,99.90
2018-05-11T20:24:41.163Z,99.90
2018-05-11T20:27:08.508Z,99.90
2018-05-11T20:29:35.170Z,99.90
2018-05-11T20:32:01.740Z,99.90
2018-05-11T20:34:28.480Z,99.90
2018-05-11T20:36:54.989Z,99.90
2018-05-11T20:39:21.513Z,99.90
2018-05-11T20:41:48.155Z,99.90
2018-05-11T20:44:15.431Z,99.90
2018-05-11T20:46:41.993Z,99.90
2018-05-11T20:49:08.646Z,99.90
2018-05-11T20:51:36.692Z,99.90
2018-05-11T20:54:03.302Z,99.90
2018-05-11T20:56:30.259Z,99.90
2018-05-11T20:58:57.433Z,99.90
2018-05-11T21:01:24.600Z,99.90
2018-05-11T21:03:51.814Z,99.90
2018-05-11T21:06:18.344Z,99.90
2018-05-11T21:08:45.007Z,99.90
2018-05-11T21:11:12.383Z,99.90
2018-05-11T21:13:38.895Z,99.90
2018-05-11T21:16:05.419Z,99.90
2018-05-11T21:18:31.879Z,99.90
2018-05-11T21:20:58.343Z,99.90
2018-05-11T21:23:24.760Z,99.90
2018-05-11T21:25:52.757Z,99.90
2018-05-11T21:28:19.272Z,99.90
2018-05-11T21:30:47.141Z,99.90
2018-05-11T21:33:13.762Z,99.90
2018-05-11T21:35:40.227Z,99.90
2018-05-11T21:38:06.726Z,99.90
2018-05-11T21:40:33.235Z,99.90
2018-05-11T21:42:59.791Z,99.90
2018-05-11T21:45:26.976Z,99.90
2018-05-11T21:47:53.523Z,99.90
2018-05-11T21:50:20.902Z,99.90
2018-05-11T21:52:47.367Z,99.90
2018-05-11T21:55:14.023Z,99.90
2018-05-11T21:57:40.469Z,99.90
2018-05-11T22:00:07.053Z,99.90
2018-05-11T22:02:33.590Z,99.90
2018-05-11T22:05:00.732Z,99.90
2018-05-11T22:07:27.183Z,99.90
2018-05-11T22:09:53.729Z,99.90
2018-05-11T22:12:20.237Z,99.90
2018-05-11T22:14:46.792Z,99.90
2018-05-11T22:17:13.226Z,99.90
2018-05-11T22:19:39.809Z,99.90
2018-05-11T22:22:06.947Z,99.90
2018-05-11T22:24:33.981Z,99.90
2018-05-11T22:27:00.506Z,99.90
2018-05-11T22:29:27.779Z,99.90
2018-05-11T22:31:55.003Z,99.90
2018-05-11T22:34:21.511Z,99.90
2018-05-11T22:36:48.794Z,99.90
2018-05-11T22:39:15.345Z,99.90
2018-05-11T22:41:42.575Z,99.90
2018-05-11T22:44:09.003Z,99.90
2018-05-11T22:46:35.446Z,99.90
2018-05-11T22:49:01.986Z,99.90
2018-05-11T22:51:28.433Z,99.90
2018-05-11T22:53:55.718Z,99.90
2018-05-11T22:56:22.950Z,99.90
2018-05-11T22:58:49.380Z,99.90
2018-05-11T23:01:15.848Z,99.90
2018-05-11T23:03:42.294Z,99.90
2018-05-11T23:06:09.316Z,99.90
2018-05-11T23:08:36.471Z,99.90
2018-05-11T23:11:03.778Z,99.90
2018-05-11T23:13:32.333Z,99.90
2018-05-11T23:15:58.837Z,99.90
2018-05-11T23:18:26.054Z,99.90
2018-05-11T23:20:52.469Z,99.90
2018-05-11T23:23:19.621Z,99.90
2018-05-11T23:25:46.093Z,99.90
2018-05-11T23:28:13.265Z,99.90
2018-05-11T23:30:40.473Z,99.90
2018-05-11T23:33:06.867Z,99.90
2018-05-11T23:35:33.295Z,99.90
2018-05-11T23:37:59.705Z,99.90
2018-05-11T23:40:26.879Z,99.90
2018-05-11T23:42:54.021Z,99.90
2018-05-11T23:45:21.198Z,99.90
2018-05-11T23:47:48.347Z,99.90
2018-05-11T23:50:14.766Z,99.90
2018-05-11T23:52:41.190Z,99.90
2018-05-11T23:55:08.350Z,99.90
2018-05-11T23:57:36.366Z,99.90
